createdAt,value
2019-03-19T00:00:51.583Z,3.05
2019-03-19T00:04:56.581Z,3.70
2019-03-19T00:09:01.533Z,3.10
2019-03-19T00:13:07.793Z,3.62
2019-03-19T00:17:12.753Z,3.47
2019-03-19T00:21:17.750Z,4.37
2019-03-19T00:25:29.804Z,4.05
2019-03-19T00:29:29.343Z,3.05
2019-03-19T00:33:34.300Z,3.65
2019-03-19T00:37:39.277Z,3.15
2019-03-19T00:41:44.264Z,4.08
2019-03-19T00:45:49.218Z,3.70
2019-03-19T00:49:55.181Z,4.35
2019-03-19T00:54:00.139Z,3.05
2019-03-19T00:58:05.119Z,3.37
2019-03-19T01:02:10.111Z,3.25
2019-03-19T01:06:15.061Z,6.42
2019-03-19T01:10:20.210Z,3.12
2019-03-19T01:14:25.165Z,3.00
2019-03-19T01:18:30.138Z,3.10
2019-03-19T01:22:35.194Z,4.03
2019-03-19T01:26:40.116Z,3.52
2019-03-19T01:30:45.117Z,3.33
2019-03-19T01:34:50.086Z,3.30
2019-03-19T01:38:55.078Z,3.47
2019-03-19T01:43:00.033Z,3.10
2019-03-19T01:47:05.024Z,2.83
2019-03-19T01:51:09.981Z,2.90
2019-03-19T01:55:15.612Z,3.20
2019-03-19T01:59:20.640Z,3.35
2019-03-19T02:03:25.624Z,3.50
2019-03-19T02:07:30.610Z,3.52
2019-03-19T02:11:38.243Z,4.03
2019-03-19T02:15:42.480Z,3.35
2019-03-19T02:19:47.492Z,2.98
2019-03-19T02:23:52.520Z,3.00
2019-03-19T02:27:57.600Z,3.22
2019-03-19T02:32:02.576Z,3.92
2019-03-19T02:36:07.548Z,2.80
2019-03-19T02:40:16.550Z,3.40
2019-03-19T02:44:21.510Z,2.85
2019-03-19T02:48:26.502Z,2.85
2019-03-19T02:52:31.464Z,3.35
2019-03-19T02:56:39.017Z,2.77
2019-03-19T03:00:43.717Z,2.67
2019-03-19T03:04:48.675Z,3.35
2019-03-19T03:08:53.661Z,2.60
2019-03-19T03:12:58.626Z,3.42
2019-03-19T03:17:03.650Z,4.80
2019-03-19T03:21:08.596Z,4.37
2019-03-19T03:25:14.536Z,3.00
2019-03-19T03:29:19.520Z,3.75
2019-03-19T03:33:24.481Z,3.02
2019-03-19T03:37:29.448Z,3.62
2019-03-19T03:41:34.432Z,3.30
2019-03-19T03:45:39.387Z,3.33
2019-03-19T03:49:44.411Z,2.67
2019-03-19T03:53:49.967Z,3.45
2019-03-19T03:57:54.956Z,2.60
2019-03-19T04:01:59.921Z,2.72
2019-03-19T04:06:04.909Z,3.40
2019-03-19T04:10:17.667Z,3.15
2019-03-19T04:14:22.640Z,3.20
2019-03-19T04:18:27.589Z,3.00
2019-03-19T04:22:32.565Z,3.35
2019-03-19T04:26:37.627Z,3.15
2019-03-19T04:30:42.619Z,3.70
2019-03-19T04:34:47.559Z,3.83
2019-03-19T04:38:52.577Z,3.98
2019-03-19T04:42:57.542Z,3.22
2019-03-19T04:47:02.518Z,3.90
2019-03-19T04:51:07.462Z,3.67
2019-03-19T04:55:16.517Z,3.20
2019-03-19T04:59:22.130Z,3.40
2019-03-19T05:03:27.077Z,3.45
2019-03-19T05:07:32.064Z,3.42
2019-03-19T05:11:37.266Z,3.52
2019-03-19T05:15:43.296Z,3.17
2019-03-19T05:19:48.273Z,4.22
2019-03-19T05:23:53.227Z,2.90
2019-03-19T05:27:58.205Z,3.72
2019-03-19T05:32:03.160Z,3.25
2019-03-19T05:36:08.132Z,3.75
2019-03-19T05:40:17.134Z,2.77
2019-03-19T05:44:22.083Z,4.28
2019-03-19T05:48:27.076Z,3.83
2019-03-19T05:52:32.075Z,3.12
2019-03-19T05:56:37.022Z,3.70
2019-03-19T06:00:42.004Z,3.70
2019-03-19T06:04:46.983Z,3.35
2019-03-19T06:08:51.930Z,4.03
2019-03-19T06:12:56.921Z,3.52
2019-03-19T06:17:01.880Z,3.30
2019-03-19T06:21:09.729Z,3.05
2019-03-19T06:25:14.758Z,3.55
2019-03-19T06:29:19.737Z,3.83
2019-03-19T06:33:24.685Z,3.33
2019-03-19T06:37:30.737Z,3.33
2019-03-19T06:41:35.728Z,3.65
2019-03-19T06:45:40.680Z,3.27
2019-03-19T06:49:45.658Z,2.75
2019-03-19T06:53:50.653Z,3.65
2019-03-19T06:57:55.612Z,3.33
2019-03-19T07:02:00.612Z,3.75
2019-03-19T07:06:05.743Z,3.42
2019-03-19T07:10:15.468Z,3.40
2019-03-19T07:14:21.523Z,4.58
2019-03-19T07:18:26.495Z,3.65
2019-03-19T07:22:31.505Z,3.52
2019-03-19T07:26:36.465Z,4.10
2019-03-19T07:30:41.444Z,3.40
2019-03-19T07:34:46.397Z,2.72
2019-03-19T07:38:51.412Z,2.60
2019-03-19T07:42:56.405Z,3.35
2019-03-19T07:47:01.396Z,3.85
2019-03-19T07:51:06.347Z,2.72
2019-03-19T07:55:11.821Z,2.80
2019-03-19T07:59:16.786Z,3.30
2019-03-19T08:03:21.806Z,3.50
2019-03-19T08:07:26.753Z,3.60
2019-03-19T08:11:31.767Z,3.50
2019-03-19T08:15:36.717Z,3.15
2019-03-19T08:19:41.820Z,3.00
2019-03-19T08:23:46.822Z,3.02
2019-03-19T08:27:51.790Z,3.08
2019-03-19T08:31:56.896Z,3.20
2019-03-19T08:36:09.244Z,3.30
2019-03-19T08:40:13.899Z,2.90
2019-03-19T08:44:27.516Z,3.70
2019-03-19T08:48:25.497Z,3.72
2019-03-19T08:52:30.464Z,4.17
2019-03-19T08:56:35.466Z,3.67
2019-03-19T09:00:40.593Z,3.27
2019-03-19T09:04:46.653Z,3.25
2019-03-19T09:08:51.611Z,4.62
2019-03-19T09:12:56.592Z,3.77
2019-03-19T09:17:01.553Z,4.03
2019-03-19T09:21:06.531Z,3.33
2019-03-19T09:25:12.163Z,3.47
2019-03-19T09:29:17.444Z,4.17
2019-03-19T09:33:22.556Z,3.72
2019-03-19T09:37:27.518Z,3.75
2019-03-19T09:41:32.504Z,3.77
2019-03-19T09:45:37.453Z,3.35
2019-03-19T09:49:42.432Z,3.60
2019-03-19T09:53:47.384Z,3.20
2019-03-19T09:57:52.364Z,3.47
2019-03-19T10:01:57.345Z,3.10
2019-03-19T10:06:13.637Z,3.02
2019-03-19T10:10:14.958Z,2.95
2019-03-19T10:14:19.913Z,2.75
2019-03-19T10:18:24.908Z,2.95
2019-03-19T10:22:29.881Z,2.98
2019-03-19T10:26:34.906Z,2.72
2019-03-19T10:30:39.893Z,2.77
2019-03-19T10:34:44.866Z,2.77
2019-03-19T10:38:49.851Z,2.67
2019-03-19T10:42:54.847Z,2.20
2019-03-19T10:46:59.802Z,2.40
2019-03-19T10:51:05.055Z,3.30
2019-03-19T10:55:10.463Z,2.27
2019-03-19T10:59:15.498Z,2.47
2019-03-19T11:03:20.490Z,2.65
2019-03-19T11:07:25.457Z,2.85
2019-03-19T11:11:30.442Z,2.65
2019-03-19T11:15:35.405Z,2.75
2019-03-19T11:19:40.373Z,2.00
2019-03-19T11:23:45.325Z,2.00
2019-03-19T11:27:50.349Z,2.17
2019-03-19T11:31:55.460Z,2.20
2019-03-19T11:36:00.416Z,2.20
2019-03-19T11:40:08.492Z,2.50
2019-03-19T11:44:13.557Z,2.33
2019-03-19T11:48:18.505Z,2.12
2019-03-19T11:52:23.486Z,1.80
2019-03-19T11:56:28.452Z,2.50
2019-03-19T12:00:35.111Z,2.00
2019-03-19T12:04:40.164Z,2.30
2019-03-19T12:08:45.152Z,2.12
2019-03-19T12:12:50.215Z,2.00
2019-03-19T12:16:55.190Z,2.08
2019-03-19T12:21:00.185Z,1.77
2019-03-19T12:25:12.882Z,2.02
2019-03-19T12:29:17.878Z,2.00
2019-03-19T12:33:22.884Z,1.90
2019-03-19T12:37:28.910Z,1.77
2019-03-19T12:41:33.900Z,1.75
2019-03-19T12:45:38.881Z,1.72
2019-03-19T12:49:43.886Z,1.72
2019-03-19T12:53:48.856Z,1.70
2019-03-19T12:57:53.820Z,1.70
2019-03-19T13:01:58.809Z,1.37
2019-03-19T13:06:03.773Z,1.67
2019-03-19T13:10:13.956Z,1.77
2019-03-19T13:14:18.914Z,1.87
2019-03-19T13:18:23.898Z,1.70
2019-03-19T13:22:28.854Z,1.80
2019-03-19T13:26:33.858Z,1.82
2019-03-19T13:30:45.045Z,1.87
2019-03-19T13:34:45.409Z,2.22
2019-03-19T13:38:50.369Z,1.90
2019-03-19T13:42:55.392Z,1.92
2019-03-19T13:47:00.346Z,2.17
2019-03-19T13:51:05.305Z,1.90
2019-03-19T13:55:13.057Z,1.90
2019-03-19T13:59:18.189Z,2.10
2019-03-19T14:03:23.171Z,2.00
2019-03-19T14:07:28.125Z,1.90
2019-03-19T14:11:33.104Z,2.37
2019-03-19T14:15:38.084Z,2.10
2019-03-19T14:19:43.199Z,2.77
2019-03-19T14:23:48.208Z,2.12
2019-03-19T14:27:53.182Z,1.50
2019-03-19T14:31:58.154Z,2.25
2019-03-19T14:36:03.316Z,1.57
2019-03-19T14:40:14.197Z,1.85
2019-03-19T14:44:21.754Z,3.00
2019-03-19T14:48:25.783Z,1.70
2019-03-19T14:52:31.020Z,2.27
2019-03-19T14:56:37.189Z,2.12
2019-03-19T15:00:42.160Z,2.45
2019-03-19T15:04:47.486Z,2.20
2019-03-19T15:08:52.730Z,2.42
2019-03-19T15:12:58.079Z,2.02
2019-03-19T15:17:05.190Z,1.82
2019-03-19T15:21:10.622Z,1.95
2019-03-19T15:25:16.385Z,1.90
2019-03-19T15:29:22.964Z,1.70
2019-03-19T15:33:29.036Z,2.05
2019-03-19T15:37:36.709Z,2.35
2019-03-19T15:41:42.507Z,2.52
2019-03-19T15:45:47.556Z,2.15
2019-03-19T15:49:52.622Z,2.10
2019-03-19T15:53:57.578Z,2.00
2019-03-19T15:58:03.795Z,1.95
2019-03-19T16:02:09.131Z,2.10
2019-03-19T16:06:14.494Z,2.35
2019-03-19T16:10:20.051Z,2.42
2019-03-19T16:14:25.375Z,2.02
2019-03-19T16:18:30.955Z,2.00
2019-03-19T16:22:36.511Z,2.17
2019-03-19T16:26:42.170Z,2.20
2019-03-19T16:30:47.827Z,1.98
2019-03-19T16:34:53.484Z,2.08
2019-03-19T16:38:58.836Z,2.20
2019-03-19T16:43:04.006Z,2.37
2019-03-19T16:47:08.996Z,2.60
2019-03-19T16:51:14.375Z,2.47
2019-03-19T16:55:20.854Z,2.50
2019-03-19T16:59:26.203Z,3.25
2019-03-19T17:03:31.654Z,2.85
2019-03-19T17:07:37.112Z,2.00
2019-03-19T17:11:42.665Z,1.90
2019-03-19T17:15:49.345Z,2.20
2019-03-19T17:19:55.006Z,2.22
2019-03-19T17:24:00.660Z,3.02
2019-03-19T17:28:07.752Z,1.98
2019-03-19T17:32:18.204Z,2.62
2019-03-19T17:36:23.924Z,2.45
2019-03-19T17:40:40.560Z,2.02
2019-03-19T17:44:37.346Z,2.22
2019-03-19T17:48:44.206Z,2.47
2019-03-19T17:52:51.584Z,2.33
2019-03-19T17:56:59.540Z,2.35
2019-03-19T18:01:16.795Z,2.37
2019-03-19T18:05:14.030Z,3.17
2019-03-19T18:09:20.813Z,2.65
2019-03-19T18:13:27.799Z,2.37
2019-03-19T18:17:34.484Z,1.80
2019-03-19T18:21:40.041Z,1.98
2019-03-19T18:25:47.440Z,2.20
2019-03-19T18:29:55.563Z,2.20
2019-03-19T18:34:09.989Z,2.50
2019-03-19T18:38:08.611Z,2.25
2019-03-19T18:42:14.266Z,2.87
2019-03-19T18:46:19.924Z,3.00
2019-03-19T18:50:26.607Z,2.87
2019-03-19T18:54:32.264Z,2.25
2019-03-19T18:58:38.056Z,3.17
2019-03-19T19:02:49.670Z,3.33
2019-03-19T19:06:51.180Z,3.08
2019-03-19T19:10:56.842Z,3.10
2019-03-19T19:15:02.546Z,2.58
2019-03-19T19:19:08.459Z,2.83
2019-03-19T19:23:16.636Z,2.42
2019-03-19T19:27:23.365Z,2.60
2019-03-19T19:31:29.741Z,2.77
2019-03-19T19:35:39.855Z,3.42
2019-03-19T19:39:47.752Z,2.37
2019-03-19T19:43:55.207Z,2.90
2019-03-19T19:48:00.967Z,2.98
2019-03-19T19:52:08.206Z,4.05
2019-03-19T19:56:26.823Z,3.08
2019-03-19T20:00:34.020Z,3.75
2019-03-19T20:04:40.290Z,2.95
2019-03-19T20:08:46.050Z,2.40
2019-03-19T20:12:52.937Z,2.65
2019-03-19T20:16:59.002Z,3.77
2019-03-19T20:21:05.378Z,3.30
2019-03-19T20:25:12.221Z,2.35
2019-03-19T20:29:18.023Z,2.83
2019-03-19T20:33:26.447Z,3.35
2019-03-19T20:37:33.761Z,3.17
2019-03-19T20:41:39.911Z,2.87
2019-03-19T20:45:45.601Z,3.25
2019-03-19T20:49:52.456Z,4.12
2019-03-19T20:53:58.776Z,4.50
2019-03-19T20:58:06.232Z,3.67
2019-03-19T21:02:11.989Z,4.83
2019-03-19T21:06:17.752Z,5.92
2019-03-19T21:10:24.450Z,5.20
2019-03-19T21:14:30.197Z,5.65
2019-03-19T21:18:35.853Z,7.25
2019-03-19T21:22:42.775Z,6.78
2019-03-19T21:26:48.501Z,6.47
2019-03-19T21:30:54.155Z,5.85
2019-03-19T21:34:59.712Z,6.22
2019-03-19T21:39:07.575Z,7.72
2019-03-19T21:43:13.173Z,6.95
2019-03-19T21:47:18.733Z,7.28
2019-03-19T21:51:25.313Z,7.70
2019-03-19T21:55:30.867Z,8.33
2019-03-19T21:59:36.506Z,9.65
2019-03-19T22:03:42.079Z,7.90
2019-03-19T22:07:47.837Z,6.95
2019-03-19T22:11:53.392Z,7.40
2019-03-19T22:15:59.155Z,6.37
2019-03-19T22:20:06.235Z,7.12
2019-03-19T22:24:11.717Z,6.40
2019-03-19T22:28:16.947Z,6.12
2019-03-19T22:32:21.925Z,5.97
2019-03-19T22:36:26.993Z,5.45
2019-03-19T22:40:31.981Z,4.87
2019-03-19T22:44:37.118Z,5.62
2019-03-19T22:48:42.470Z,4.62
2019-03-19T22:52:47.795Z,5.58
2019-03-19T22:56:52.860Z,5.22
2019-03-19T23:00:57.811Z,5.60
2019-03-19T23:05:02.850Z,4.87
2019-03-19T23:09:08.041Z,5.47
2019-03-19T23:13:13.464Z,5.58
2019-03-19T23:17:18.599Z,6.90
2019-03-19T23:21:23.632Z,6.62
2019-03-19T23:25:29.642Z,6.28
2019-03-19T23:29:34.636Z,6.50
2019-03-19T23:33:39.785Z,7.42
2019-03-19T23:37:44.768Z,7.25
2019-03-19T23:41:50.133Z,6.90
2019-03-19T23:45:55.116Z,8.53
2019-03-19T23:50:00.094Z,7.30
2019-03-19T23:54:05.078Z,6.67
2019-03-19T23:58:10.081Z,6.60
